Time;durP1;ratioP1;P1;durP2;ratioP2;P2;SDS_P1;SDS_P2;PMS_P1;PMS_P2;Temp;Humidity;BMP_temperature;BMP_pressure;BME280_temperature;BME280_humidity;BME280_pressure;Samples;Min_cycle;Max_cycle;Signal;HPM_P1;HPM_P2
2023/01/18 00:00:31;;;;;;;11.88;6.57;;;1.90;99.90;;;;;;4926746;29;20035;-75
2023/01/18 00:02:57;;;;;;;12.18;6.40;;;1.80;99.90;;;;;;4926114;29;20040;-76
2023/01/18 00:05:24;;;;;;;12.82;6.95;;;1.80;99.90;;;;;;4926960;29;20036;-76
2023/01/18 00:07:51;;;;;;;10.40;6.32;;;1.80;99.90;;;;;;4926469;29;20032;-76
2023/01/18 00:10:17;;;;;;;12.30;6.68;;;1.80;99.90;;;;;;4927042;29;20036;-76
2023/01/18 00:12:44;;;;;;;11.75;7.07;;;1.70;99.90;;;;;;4925862;29;20314;-75
2023/01/18 00:15:10;;;;;;;13.95;7.22;;;1.70;99.90;;;;;;4926185;29;20075;-76
2023/01/18 00:17:46;;;;;;;12.80;7.30;;;1.70;99.90;;;;;;4925520;29;20032;-75
2023/01/18 00:20:15;;;;;;;14.52;7.05;;;1.70;99.90;;;;;;4925699;29;20036;-74
2023/01/18 00:22:42;;;;;;;11.32;6.65;;;1.70;99.90;;;;;;4926724;29;20267;-75
2023/01/18 00:25:09;;;;;;;12.73;7.10;;;1.70;99.90;;;;;;4924915;29;20313;-75
2023/01/18 00:27:44;;;;;;;14.75;8.13;;;1.70;99.90;;;;;;4926404;29;20040;-76
2023/01/18 00:30:10;;;;;;;12.88;7.97;;;1.70;99.90;;;;;;4924945;29;20068;-75
2023/01/18 06:01:18;;;;;;;8.07;4.82;;;0.90;99.90;;;;;;5818248;23;20040;-76
2023/01/18 06:03:44;;;;;;;8.57;5.38;;;0.90;99.90;;;;;;4954312;29;20036;-76
2023/01/18 06:06:10;;;;;;;8.52;5.10;;;0.90;99.90;;;;;;4924703;29;20028;-75
2023/01/18 06:08:36;;;;;;;10.30;5.20;;;0.90;99.90;;;;;;4925753;29;20054;-76
2023/01/18 06:11:02;;;;;;;8.18;5.10;;;0.90;99.90;;;;;;4943675;29;20024;-75
2023/01/18 06:13:30;;;;;;;8.45;5.70;;;0.90;99.90;;;;;;4929055;29;20051;-74
2023/01/18 06:15:58;;;;;;;9.10;5.28;;;0.90;99.90;;;;;;4959929;29;20242;-76
2023/01/18 06:18:32;;;;;;;9.10;5.70;;;0.90;99.90;;;;;;4928175;29;20254;-79
2023/01/18 06:20:59;;;;;;;8.32;5.40;;;1.00;99.90;;;;;;4943323;29;20322;-77
2023/01/18 06:23:26;;;;;;;7.77;4.23;;;1.00;99.90;;;;;;4928573;29;20043;-78
2023/01/18 06:25:51;;;;;;;10.40;5.75;;;1.00;99.90;;;;;;4928460;29;20234;-76
2023/01/18 06:28:18;;;;;;;9.00;5.57;;;1.00;99.90;;;;;;4959012;29;20075;-77
2023/01/18 06:30:46;;;;;;;10.35;4.82;;;1.00;99.90;;;;;;4928613;29;20066;-77
2023/01/18 06:33:14;;;;;;;8.98;5.20;;;1.00;99.90;;;;;;4928062;29;20032;-77
2023/01/18 06:35:42;;;;;;;8.73;5.28;;;0.90;99.90;;;;;;4928608;29;20024;-78
2023/01/18 06:38:07;;;;;;;9.52;5.50;;;1.00;99.90;;;;;;4928624;29;20309;-79
2023/01/18 06:40:33;;;;;;;8.65;4.95;;;1.00;99.90;;;;;;4928121;29;20039;-76
2023/01/18 06:42:59;;;;;;;8.43;5.60;;;1.00;99.90;;;;;;4927257;29;20020;-75
2023/01/18 06:45:25;;;;;;;8.15;4.60;;;1.00;99.90;;;;;;4927490;29;20032;-75
2023/01/18 06:47:52;;;;;;;7.40;4.57;;;1.00;99.90;;;;;;4942881;29;20044;-75
2023/01/18 06:50:19;;;;;;;7.47;4.95;;;1.00;99.90;;;;;;4942623;29;20317;-75
2023/01/18 06:52:45;;;;;;;7.17;5.00;;;1.00;99.90;;;;;;4928263;29;20091;-75
2023/01/18 06:55:12;;;;;;;9.35;5.22;;;1.00;99.90;;;;;;4928224;29;20044;-75
2023/01/18 06:57:38;;;;;;;7.47;4.75;;;1.00;99.90;;;;;;4928023;29;20329;-75
2023/01/18 07:00:05;;;;;;;9.82;5.55;;;1.00;99.90;;;;;;4928316;29;20044;-75
2023/01/18 07:02:32;;;;;;;9.18;5.35;;;1.00;99.90;;;;;;4927263;29;20078;-75
2023/01/18 07:04:59;;;;;;;9.75;6.45;;;1.00;99.90;;;;;;4934847;29;20099;-75
2023/01/18 07:07:32;;;;;;;9.73;6.20;;;1.00;99.90;;;;;;4911662;29;20191;-77
2023/01/18 07:09:57;;;;;;;14.13;7.35;;;1.00;99.90;;;;;;4912134;29;20028;-76
2023/01/18 07:12:23;;;;;;;10.95;7.40;;;1.00;99.90;;;;;;4926100;29;20095;-76
2023/01/18 07:14:49;;;;;;;12.32;7.00;;;1.00;99.90;;;;;;4927546;29;20047;-76
2023/01/18 07:17:18;;;;;;;12.05;7.10;;;1.00;99.90;;;;;;4941159;29;20036;-76
2023/01/18 07:19:43;;;;;;;13.73;7.50;;;1.10;99.90;;;;;;4927427;29;20024;-76
2023/01/18 07:22:09;;;;;;;10.80;7.07;;;1.10;99.90;;;;;;4926822;29;20393;-75
2023/01/18 07:24:35;;;;;;;10.63;7.63;;;1.10;99.90;;;;;;4918756;29;20024;-75
2023/01/18 07:27:02;;;;;;;11.68;7.50;;;1.00;99.90;;;;;;4918060;29;20028;-76
2023/01/18 07:29:44;;;;;;;14.88;8.23;;;1.00;99.90;;;;;;4927229;29;20027;-75
2023/01/18 07:32:19;;;;;;;12.82;7.85;;;1.00;99.90;;;;;;4926110;29;20044;-77
2023/01/18 07:35:13;;;;;;;15.83;8.97;;;1.00;99.90;;;;;;4926150;29;20024;-76
2023/01/18 07:37:39;;;;;;;14.00;8.45;;;0.90;99.90;;;;;;4908534;29;20259;-75
2023/01/18 07:40:05;;;;;;;11.98;8.23;;;0.90;99.90;;;;;;4923144;29;20036;-76
2023/01/18 07:42:31;;;;;;;12.77;7.80;;;0.90;99.90;;;;;;4908244;29;20214;-76
2023/01/18 07:44:57;;;;;;;11.10;7.20;;;1.00;99.90;;;;;;4924029;29;20367;-75
2023/01/18 07:47:22;;;;;;;13.43;7.72;;;0.90;99.90;;;;;;4927690;29;20029;-75
2023/01/18 07:49:48;;;;;;;11.05;7.47;;;0.90;99.90;;;;;;4908587;29;20310;-74
2023/01/18 07:52:19;;;;;;;13.05;7.28;;;0.90;99.90;;;;;;4938853;29;20333;-75
2023/01/18 07:54:45;;;;;;;10.88;6.63;;;1.00;99.90;;;;;;4938365;29;20226;-76
2023/01/18 07:57:17;;;;;;;10.10;6.72;;;1.00;99.90;;;;;;4903394;29;20234;-80
2023/01/18 07:59:43;;;;;;;10.25;6.50;;;1.00;99.90;;;;;;4919055;29;20115;-75
2023/01/18 08:02:13;;;;;;;9.77;6.47;;;1.00;99.90;;;;;;4907457;29;20095;-76
2023/01/18 08:04:42;;;;;;;14.93;7.60;;;1.00;99.90;;;;;;4922761;29;20032;-76
2023/01/18 08:07:10;;;;;;;13.73;8.35;;;1.00;99.90;;;;;;4907743;29;20039;-75
2023/01/18 08:09:36;;;;;;;14.60;8.77;;;1.00;99.90;;;;;;4922427;29;20028;-75
2023/01/18 08:12:03;;;;;;;12.98;9.25;;;1.00;99.90;;;;;;4907521;29;20124;-75
2023/01/18 08:14:28;;;;;;;12.93;8.40;;;1.00;99.90;;;;;;4921766;29;20218;-75
2023/01/18 08:16:54;;;;;;;14.05;8.63;;;1.00;99.90;;;;;;4911281;29;20035;-76
2023/01/18 08:19:20;;;;;;;11.80;7.60;;;1.00;99.90;;;;;;4926345;29;20040;-76
2023/01/18 08:21:46;;;;;;;11.30;7.10;;;1.00;99.90;;;;;;4926397;29;20044;-75
2023/01/18 08:24:12;;;;;;;12.50;7.53;;;0.90;99.90;;;;;;4919102;29;20028;-75
2023/01/18 08:26:38;;;;;;;14.32;8.23;;;1.00;99.90;;;;;;4907557;29;20038;-76
2023/01/18 08:29:05;;;;;;;13.05;7.70;;;1.00;99.90;;;;;;4907541;29;20029;-75
2023/01/18 08:31:34;;;;;;;11.77;7.47;;;1.10;99.90;;;;;;4907250;29;20040;-75
2023/01/18 08:34:03;;;;;;;12.13;7.47;;;1.10;99.90;;;;;;4921333;29;20330;-76
2023/01/18 08:36:32;;;;;;;10.45;6.65;;;1.10;99.90;;;;;;4906713;29;20036;-76
2023/01/18 08:39:01;;;;;;;11.80;7.10;;;1.10;99.90;;;;;;4907310;29;20095;-75
2023/01/18 08:41:28;;;;;;;14.63;7.97;;;1.10;99.90;;;;;;4921382;29;20028;-74
2023/01/18 08:43:54;;;;;;;11.23;7.75;;;1.10;99.90;;;;;;4906071;29;20149;-75
2023/01/18 08:46:40;;;;;;;10.70;7.65;;;1.20;99.90;;;;;;4906773;29;20031;-75
2023/01/18 08:49:07;;;;;;;12.77;8.23;;;1.20;99.90;;;;;;4907228;29;20037;-75
2023/01/18 08:51:33;;;;;;;13.35;7.47;;;1.20;99.90;;;;;;4906975;29;20040;-75
2023/01/18 08:53:59;;;;;;;9.38;6.47;;;1.20;99.90;;;;;;4906954;29;20075;-75
2023/01/18 08:56:25;;;;;;;10.52;6.63;;;1.30;99.90;;;;;;4906484;29;20031;-76
2023/01/18 08:58:51;;;;;;;10.18;6.85;;;1.30;99.90;;;;;;4906859;29;20045;-76
2023/01/18 09:01:17;;;;;;;9.10;6.00;;;1.30;99.90;;;;;;4921334;29;20040;-76
2023/01/18 09:03:43;;;;;;;9.63;6.43;;;1.40;99.90;;;;;;4906198;29;20059;-76
2023/01/18 09:06:09;;;;;;;9.57;6.32;;;1.40;99.90;;;;;;4906957;29;20035;-76
2023/01/18 09:08:36;;;;;;;9.52;5.47;;;1.40;99.90;;;;;;4906253;29;20029;-76
2023/01/18 09:11:03;;;;;;;10.02;6.38;;;1.40;99.90;;;;;;4906913;29;20025;-76
2023/01/18 09:13:30;;;;;;;9.80;6.47;;;1.30;99.90;;;;;;4906478;29;20044;-76
2023/01/18 09:16:04;;;;;;;8.98;6.47;;;1.40;99.90;;;;;;4906658;29;20032;-75
2023/01/18 09:18:30;;;;;;;9.80;6.63;;;1.50;99.90;;;;;;4915566;29;20036;-76
2023/01/18 09:20:57;;;;;;;9.57;6.47;;;1.50;99.90;;;;;;4925213;29;20059;-75
2023/01/18 09:23:23;;;;;;;10.55;6.55;;;1.50;99.90;;;;;;4924134;29;20132;-74
2023/01/18 09:26:03;;;;;;;8.45;5.90;;;1.50;99.90;;;;;;4906669;29;20044;-75
2023/01/18 09:28:29;;;;;;;8.50;5.72;;;1.60;99.90;;;;;;4906413;29;20056;-74
2023/01/18 09:30:59;;;;;;;9.23;5.72;;;1.60;99.90;;;;;;4906487;29;20137;-75
2023/01/18 09:33:25;;;;;;;10.52;6.30;;;1.50;99.90;;;;;;4920770;29;20047;-76
2023/01/18 09:35:51;;;;;;;10.13;6.47;;;1.50;99.90;;;;;;4906508;29;20036;-76
2023/01/18 09:38:17;;;;;;;8.77;5.72;;;1.50;99.90;;;;;;4906268;29;20096;-76
2023/01/18 09:40:44;;;;;;;8.52;5.40;;;1.50;99.90;;;;;;4906305;29;20040;-76
2023/01/18 09:43:19;;;;;;;8.18;5.43;;;1.50;99.90;;;;;;4906276;29;20044;-75
2023/01/18 09:45:46;;;;;;;9.32;5.57;;;1.60;99.90;;;;;;4924992;29;20203;-77
2023/01/18 09:48:28;;;;;;;9.27;6.38;;;1.70;99.90;;;;;;4915352;29;20110;-75
2023/01/18 09:50:57;;;;;;;9.80;5.70;;;1.70;99.90;;;;;;4929240;29;20203;-76
2023/01/18 09:53:45;;;;;;;7.65;5.65;;;1.60;99.90;;;;;;4921435;29;20182;-75
2023/01/18 09:56:29;;;;;;;9.15;5.57;;;1.70;99.90;;;;;;4910002;29;20188;-74
2023/01/18 09:59:01;;;;;;;8.05;5.60;;;1.70;99.90;;;;;;4910302;29;20040;-74
2023/01/18 10:01:31;;;;;;;7.35;4.43;;;1.70;99.90;;;;;;4909265;29;20039;-74
2023/01/18 10:03:56;;;;;;;8.63;5.60;;;1.70;99.90;;;;;;4909648;29;20028;-76
2023/01/18 10:07:16;;;;;;;10.77;6.13;;;1.60;99.90;;;;;;4924098;29;20332;-74
2023/01/18 10:09:52;;;;;;;10.13;5.68;;;1.70;99.90;;;;;;4851963;29;20081;-76
2023/01/18 10:12:40;;;;;;;9.30;4.57;;;1.80;99.90;;;;;;4836188;29;20152;-76
2023/01/18 10:15:19;;;;;;;7.40;4.80;;;1.90;99.90;;;;;;4852477;29;20097;-73
2023/01/18 10:17:46;;;;;;;7.07;4.32;;;2.10;99.90;;;;;;4855358;29;20045;-77
2023/01/18 10:20:16;;;;;;;7.15;4.43;;;2.20;99.90;;;;;;4870822;29;20049;-80
2023/01/18 10:23:24;;;;;;;7.35;4.57;;;2.20;99.90;;;;;;4870141;29;20068;-79
2023/01/18 10:29:36;;;;;;;8.25;4.80;;;2.50;99.90;;;;;;4851925;29;20038;-76
2023/01/18 10:32:09;;;;;;;5.65;3.35;;;3.00;99.90;;;;;;4844250;29;20042;-78
2023/01/18 10:34:50;;;;;;;7.57;4.47;;;2.90;99.90;;;;;;4851434;29;20033;-77
2023/01/18 10:37:44;;;;;;;7.90;4.80;;;2.70;99.90;;;;;;4859474;29;20135;-77
2023/01/18 10:40:16;;;;;;;8.93;5.43;;;2.50;99.90;;;;;;4854477;29;20065;-79
2023/01/18 10:43:03;;;;;;;7.72;5.13;;;2.50;99.90;;;;;;4870221;29;20053;-76
2023/01/18 10:45:35;;;;;;;8.82;5.43;;;2.40;99.90;;;;;;4867482;29;20052;-76
2023/01/18 10:48:28;;;;;;;7.70;4.53;;;2.30;99.90;;;;;;4909299;29;20441;-76
2023/01/18 10:50:57;;;;;;;8.45;4.88;;;2.40;99.90;;;;;;4909099;29;20033;-75
2023/01/18 10:53:22;;;;;;;8.52;4.63;;;2.50;99.90;;;;;;4908578;29;20035;-78
2023/01/18 10:55:58;;;;;;;8.80;5.45;;;2.50;99.90;;;;;;4907866;29;20036;-76
2023/01/18 10:58:46;;;;;;;10.77;5.28;;;2.40;99.90;;;;;;4922795;29;20215;-77
2023/01/18 11:01:21;;;;;;;;;;;2.40;99.90;;;;;;4909846;29;20063;-74
2023/01/18 11:04:15;;;;;;;10.38;5.63;;;2.40;99.90;;;;;;4907710;29;19915;-76
2023/01/18 11:06:50;;;;;;;8.50;5.43;;;2.40;99.90;;;;;;4908521;29;20100;-75
2023/01/18 11:09:45;;;;;;;9.45;4.82;;;2.50;99.90;;;;;;4909271;29;20055;-77
2023/01/18 11:12:32;;;;;;;9.10;5.32;;;2.50;99.90;;;;;;4908763;29;20049;-77
2023/01/18 11:15:13;;;;;;;8.02;4.80;;;2.40;99.90;;;;;;4908631;29;20063;-77
2023/01/18 11:18:02;;;;;;;8.82;5.35;;;2.30;99.90;;;;;;4922599;29;20100;-77
2023/01/18 11:20:33;;;;;;;13.27;5.35;;;2.40;99.90;;;;;;4908000;29;20040;-78
2023/01/18 11:23:19;;;;;;;9.60;5.43;;;2.40;99.90;;;;;;4908911;29;20076;-77
2023/01/18 11:26:11;;;;;;;8.93;5.28;;;2.40;99.90;;;;;;4908618;29;20044;-79
2023/01/18 11:28:56;;;;;;;11.38;5.78;;;2.30;99.90;;;;;;4910263;29;20238;-77
2023/01/18 11:31:25;;;;;;;10.77;5.47;;;2.40;99.90;;;;;;4908136;29;20048;-77
2023/01/18 11:34:33;;;;;;;10.38;5.20;;;2.50;99.90;;;;;;4908301;29;20036;-77
2023/01/18 11:37:02;;;;;;;8.45;4.63;;;2.70;99.90;;;;;;4906283;29;20210;-80
2023/01/18 11:39:34;;;;;;;7.22;4.32;;;2.60;99.90;;;;;;4919528;29;20107;-81
2023/01/18 11:42:29;;;;;;;9.95;4.75;;;2.60;99.90;;;;;;4907843;29;20041;-81
2023/01/18 11:45:24;;;;;;;8.00;5.10;;;2.50;99.90;;;;;;4907390;29;20037;-82
2023/01/18 11:48:22;;;;;;;9.35;4.65;;;2.50;99.90;;;;;;4908185;29;20040;-79
2023/01/18 11:51:14;;;;;;;;;;;2.50;99.90;;;;;;4903803;29;20044;-80
2023/01/18 11:54:21;;;;;;;10.77;5.10;;;2.50;99.90;;;;;;4921813;29;19911;-80
2023/01/18 11:56:50;;;;;;;8.73;4.47;;;2.50;99.90;;;;;;4906528;29;20112;-76
2023/01/18 11:59:46;;;;;;;10.35;5.60;;;2.50;99.90;;;;;;4908242;29;20048;-75
2023/01/18 12:02:36;;;;;;;7.75;4.03;;;2.60;99.90;;;;;;4915352;29;20088;-75
2023/01/18 12:05:33;;;;;;;7.10;4.47;;;2.70;99.90;;;;;;4911658;29;20039;-77
2023/01/18 12:08:09;;;;;;;8.45;4.43;;;2.60;99.90;;;;;;4911187;29;20029;-75
2023/01/18 12:10:48;;;;;;;6.97;4.28;;;2.60;99.90;;;;;;4911548;29;20040;-76
2023/01/18 12:13:33;;;;;;;6.63;3.90;;;2.60;99.90;;;;;;4911329;29;20111;-76
2023/01/18 12:16:25;;;;;;;6.68;3.63;;;2.60;99.90;;;;;;4910027;29;20053;-76
2023/01/18 12:19:28;;;;;;;7.90;3.85;;;2.60;99.90;;;;;;4916685;29;20120;-75
2023/01/18 12:22:19;;;;;;;7.13;3.80;;;2.50;99.90;;;;;;4908737;29;20099;-77
2023/01/18 12:24:50;;;;;;;7.72;4.10;;;2.50;99.90;;;;;;4907435;29;20272;-76
2023/01/18 12:27:43;;;;;;;8.63;4.05;;;2.50;99.90;;;;;;4906683;29;20031;-76
2023/01/18 12:30:26;;;;;;;7.07;3.63;;;2.50;99.90;;;;;;4907436;29;20035;-76
2023/01/18 12:33:16;;;;;;;6.53;3.63;;;2.50;99.90;;;;;;4908335;29;20048;-78
2023/01/18 12:36:08;;;;;;;7.32;3.78;;;2.70;99.90;;;;;;4906155;29;20277;-77
2023/01/18 12:38:40;;;;;;;8.68;4.60;;;2.80;99.90;;;;;;4902858;29;20029;-77
2023/01/18 12:41:25;;;;;;;9.50;4.32;;;2.80;99.90;;;;;;4902971;29;20230;-76
2023/01/18 12:44:20;;;;;;;7.32;3.97;;;2.70;99.90;;;;;;4903183;29;20255;-76
2023/01/18 12:47:22;;;;;;;8.75;4.03;;;2.60;99.90;;;;;;4902978;29;20036;-76
2023/01/18 12:49:54;;;;;;;9.52;5.65;;;2.60;99.90;;;;;;4888833;29;20029;-77
2023/01/18 12:52:50;;;;;;;9.05;4.35;;;2.60;99.90;;;;;;4888209;29;20056;-78
2023/01/18 12:55:25;;;;;;;9.38;4.63;;;2.60;99.90;;;;;;4905186;29;20044;-77
2023/01/18 12:58:00;;;;;;;7.15;4.10;;;2.60;99.90;;;;;;4904654;29;20052;-76
2023/01/18 13:00:48;;;;;;;7.25;3.88;;;2.60;99.90;;;;;;4905084;29;20080;-77
2023/01/18 13:03:17;;;;;;;8.93;3.92;;;2.60;99.90;;;;;;4904801;29;20059;-77
2023/01/18 13:05:52;;;;;;;6.55;3.80;;;2.60;99.90;;;;;;4904744;29;20075;-76
2023/01/18 13:08:37;;;;;;;8.93;4.18;;;2.70;99.90;;;;;;4905343;29;20326;-77
2023/01/18 13:11:34;;;;;;;7.55;4.30;;;2.80;99.90;;;;;;4904855;29;20048;-76
2023/01/18 13:14:24;;;;;;;8.68;4.10;;;2.90;99.90;;;;;;4905089;29;20112;-76
2023/01/18 13:17:27;;;;;;;7.65;3.53;;;3.00;99.90;;;;;;4905033;29;20072;-78
2023/01/18 13:20:00;;;;;;;8.07;3.60;;;3.20;99.90;;;;;;4870740;29;20115;-77
2023/01/18 13:23:04;;;;;;;9.32;3.30;;;3.10;99.90;;;;;;4886474;29;20033;-78
2023/01/18 13:26:16;;;;;;;7.55;3.33;;;3.10;99.90;;;;;;4885835;29;20051;-76
2023/01/18 13:29:15;;;;;;;7.35;3.65;;;3.00;99.90;;;;;;4886533;29;20041;-78
2023/01/18 13:31:55;;;;;;;;;;;2.90;99.90;;;;;;4887322;29;20037;-77
2023/01/18 13:34:29;;;;;;;8.15;3.20;;;2.80;99.90;;;;;;4887680;29;19931;-79
2023/01/18 13:37:02;;;;;;;9.05;4.00;;;2.90;99.90;;;;;;4893467;29;20048;-77
2023/01/18 13:39:41;;;;;;;6.85;3.13;;;2.70;99.90;;;;;;4906136;29;20362;-77
2023/01/18 13:42:39;;;;;;;9.98;3.47;;;2.70;99.90;;;;;;4905687;29;20107;-78
2023/01/18 13:45:27;;;;;;;6.72;3.08;;;2.70;99.90;;;;;;4897237;29;20303;-78
2023/01/18 13:48:33;;;;;;;6.53;3.60;;;2.70;99.90;;;;;;4906543;29;20099;-77
2023/01/18 13:50:59;;;;;;;7.32;3.47;;;2.60;99.90;;;;;;4891443;29;20037;-78
2023/01/18 13:54:14;;;;;;;8.52;3.35;;;2.60;99.90;;;;;;4905353;29;20035;-79
2023/01/18 13:57:17;;;;;;;5.80;3.42;;;2.50;99.90;;;;;;4906397;29;20020;-79
2023/01/18 13:59:52;;;;;;;7.55;3.67;;;2.50;99.90;;;;;;4906817;29;20036;-82
2023/01/18 14:09:46;;;;;;;9.73;3.45;;;2.50;99.90;;;;;;4887704;29;20387;-80
2023/01/18 14:12:35;;;;;;;7.47;3.72;;;2.40;99.90;;;;;;4902444;29;20581;-80
2023/01/18 14:15:01;;;;;;;8.15;3.53;;;2.40;99.90;;;;;;4892193;29;20032;-76
2023/01/18 14:17:52;;;;;;;9.52;3.30;;;2.40;99.90;;;;;;4892457;29;20227;-76
2023/01/18 14:20:55;;;;;;;9.57;4.07;;;2.40;99.90;;;;;;4922516;29;20037;-77
2023/01/18 14:24:00;;;;;;;7.65;3.70;;;2.40;99.90;;;;;;4906245;29;20028;-76
2023/01/18 14:26:37;;;;;;;6.70;3.30;;;2.40;99.90;;;;;;4916783;29;20040;-76
2023/01/18 14:29:34;;;;;;;8.55;3.45;;;2.40;99.90;;;;;;4887268;29;20085;-76
2023/01/18 14:32:36;;;;;;;8.07;3.45;;;2.30;99.90;;;;;;4894572;29;20144;-77
2023/01/18 14:35:21;;;;;;;6.18;3.20;;;2.40;99.90;;;;;;4909529;29;20298;-79
2023/01/18 14:37:51;;;;;;;7.30;3.58;;;2.40;99.90;;;;;;4917710;29;20033;-76
2023/01/18 14:40:20;;;;;;;8.05;3.47;;;2.40;99.90;;;;;;4920687;29;20041;-78
2023/01/18 14:43:25;;;;;;;8.25;3.60;;;2.40;99.90;;;;;;4909176;29;20051;-76
2023/01/18 14:46:01;;;;;;;9.98;4.32;;;2.40;99.90;;;;;;4909338;29;20192;-76
2023/01/18 14:49:01;;;;;;;11.27;4.43;;;2.40;99.90;;;;;;4909102;29;20033;-77
2023/01/18 14:51:30;;;;;;;9.05;5.40;;;2.40;99.90;;;;;;4908849;29;20052;-76
2023/01/18 14:54:05;;;;;;;8.02;3.85;;;2.50;99.90;;;;;;4908841;29;20033;-77
2023/01/18 14:56:42;;;;;;;8.30;4.45;;;2.40;99.90;;;;;;4905244;29;20025;-80
2023/01/18 14:59:21;;;;;;;17.83;5.70;;;2.40;99.90;;;;;;4921381;29;20037;-76
2023/01/18 15:02:27;;;;;;;9.07;4.50;;;2.30;99.90;;;;;;4923278;29;21347;-76
2023/01/18 15:05:15;;;;;;;7.15;3.55;;;2.30;99.90;;;;;;4923625;29;20067;-78
2023/01/18 15:07:54;;;;;;;8.02;3.50;;;2.30;99.90;;;;;;4907468;29;20040;-77
2023/01/18 15:13:16;;;;;;;6.82;3.25;;;2.30;99.90;;;;;;4908801;29;20063;-77
2023/01/18 15:15:43;;;;;;;7.05;3.47;;;2.30;99.90;;;;;;4908769;29;20032;-78
2023/01/18 15:18:34;;;;;;;7.07;3.92;;;2.20;99.90;;;;;;4908836;29;20231;-77
2023/01/18 15:21:09;;;;;;;8.38;3.47;;;2.20;99.90;;;;;;4889976;29;20318;-77
2023/01/18 15:23:45;;;;;;;8.18;3.53;;;2.20;99.90;;;;;;4892591;29;20031;-77
2023/01/18 15:26:14;;;;;;;6.75;3.25;;;2.30;99.90;;;;;;4923521;29;20250;-79
2023/01/18 15:28:40;;;;;;;9.23;3.70;;;2.20;99.90;;;;;;4907262;29;20076;-78
2023/01/18 15:31:15;;;;;;;6.47;3.30;;;2.20;99.90;;;;;;4891593;29;20041;-77
2023/01/18 15:33:44;;;;;;;7.57;4.32;;;2.30;99.90;;;;;;4888124;29;20045;-78
2023/01/18 15:36:13;;;;;;;7.88;3.75;;;2.20;99.90;;;;;;4904181;29;20033;-76
2023/01/18 15:38:45;;;;;;;8.45;4.43;;;2.20;99.90;;;;;;4889179;29;20035;-75
2023/01/18 15:41:34;;;;;;;9.13;3.97;;;2.20;99.90;;;;;;4908051;29;20052;-77
2023/01/18 15:44:00;;;;;;;7.18;3.20;;;2.10;99.90;;;;;;4908057;29;20105;-78
2023/01/18 15:46:36;;;;;;;7.22;3.15;;;2.00;99.90;;;;;;4907766;29;20036;-77
2023/01/18 15:49:11;;;;;;;8.70;3.42;;;2.00;99.90;;;;;;4907915;29;20056;-77
2023/01/18 15:52:09;;;;;;;7.90;3.45;;;2.00;99.90;;;;;;4908243;29;20322;-77
2023/01/18 15:54:48;;;;;;;;;;;2.00;99.90;;;;;;4923804;29;20044;-78
2023/01/18 15:57:21;;;;;;;10.20;3.65;;;2.00;99.90;;;;;;4925759;29;19955;-77
2023/01/18 15:59:47;;;;;;;9.73;4.30;;;2.00;99.90;;;;;;4926160;29;20054;-77
2023/01/18 16:02:19;;;;;;;7.97;3.92;;;2.00;99.90;;;;;;4926302;29;20051;-76
2023/01/18 16:04:45;;;;;;;8.73;3.70;;;2.00;99.90;;;;;;4925397;29;20230;-77
2023/01/18 16:07:34;;;;;;;7.75;4.15;;;2.00;99.90;;;;;;4926155;29;20032;-77
2023/01/18 16:10:30;;;;;;;10.05;3.83;;;2.00;99.90;;;;;;4925495;29;20031;-75
2023/01/18 16:13:28;;;;;;;5.50;3.47;;;2.00;99.90;;;;;;4924458;29;20056;-75
2023/01/18 16:16:20;;;;;;;6.03;3.75;;;2.00;99.90;;;;;;4939558;29;20036;-75
2023/01/18 16:18:57;;;;;;;10.05;3.60;;;2.00;99.90;;;;;;4920075;29;20040;-77
2023/01/18 16:21:32;;;;;;;7.55;4.40;;;2.00;99.90;;;;;;4888922;29;20059;-78
2023/01/18 16:23:58;;;;;;;10.30;4.10;;;2.00;99.90;;;;;;4894914;29;20047;-73
2023/01/18 16:26:29;;;;;;;5.78;3.50;;;2.00;99.90;;;;;;4906455;29;20099;-75
2023/01/18 16:29:05;;;;;;;7.55;4.00;;;2.00;99.90;;;;;;4907881;29;20066;-76
2023/01/18 16:31:32;;;;;;;6.15;3.50;;;1.90;99.90;;;;;;4921728;29;20252;-75
2023/01/18 16:33:58;;;;;;;9.15;3.97;;;1.90;99.90;;;;;;4922389;29;20083;-75
2023/01/18 16:36:23;;;;;;;7.65;3.72;;;1.90;99.90;;;;;;4908387;29;20032;-76
2023/01/18 16:38:49;;;;;;;9.40;4.00;;;1.90;99.90;;;;;;4898933;29;20040;-77
2023/01/18 16:41:15;;;;;;;6.35;3.40;;;2.00;99.90;;;;;;4907206;29;20044;-75
2023/01/18 16:43:42;;;;;;;10.13;4.10;;;2.00;99.90;;;;;;4907168;29;20067;-75
2023/01/18 16:46:08;;;;;;;8.27;4.25;;;1.90;99.90;;;;;;4907284;29;20123;-74
2023/01/18 16:48:35;;;;;;;10.25;4.32;;;1.90;99.90;;;;;;4906984;29;20315;-77
2023/01/18 16:51:08;;;;;;;5.57;3.47;;;1.90;99.90;;;;;;4907286;29;20133;-77
2023/01/18 16:53:34;;;;;;;9.05;4.28;;;1.90;99.90;;;;;;4905923;29;20040;-74
2023/01/18 16:56:00;;;;;;;7.10;3.83;;;1.80;99.90;;;;;;4907402;29;20131;-75
2023/01/18 16:58:27;;;;;;;6.65;3.50;;;1.70;99.90;;;;;;4918519;29;20229;-76
2023/01/18 17:01:10;;;;;;;8.25;4.00;;;1.70;99.90;;;;;;4924770;29;20106;-76
2023/01/18 17:03:36;;;;;;;7.22;3.45;;;1.80;99.90;;;;;;4925402;29;20068;-75
2023/01/18 17:06:02;;;;;;;11.02;3.88;;;1.70;99.90;;;;;;4924537;29;20076;-74
2023/01/18 17:08:40;;;;;;;8.30;3.90;;;1.70;99.90;;;;;;4925904;29;20047;-82
2023/01/18 17:11:06;;;;;;;7.70;3.70;;;1.70;99.90;;;;;;4925874;29;20062;-75
2023/01/18 17:13:31;;;;;;;8.35;3.40;;;1.60;99.90;;;;;;4924001;29;20036;-76
2023/01/18 17:15:57;;;;;;;9.55;4.13;;;1.60;99.90;;;;;;4924701;29;20095;-76
2023/01/18 17:18:25;;;;;;;10.30;3.58;;;1.50;99.90;;;;;;4926365;29;20040;-77
2023/01/18 17:20:52;;;;;;;7.43;3.60;;;1.50;99.90;;;;;;4910577;29;20036;-76
2023/01/18 17:23:18;;;;;;;7.90;3.55;;;1.40;99.90;;;;;;4908020;29;20075;-73
2023/01/18 17:25:45;;;;;;;9.00;4.10;;;1.40;99.90;;;;;;4906854;29;20028;-73
2023/01/18 17:28:13;;;;;;;7.93;3.40;;;1.40;99.90;;;;;;4906991;29;20025;-72
2023/01/18 17:30:44;;;;;;;7.22;3.75;;;1.40;99.90;;;;;;4890028;29;20324;-80
2023/01/18 17:33:19;;;;;;;7.25;3.65;;;1.40;99.90;;;;;;4905986;29;20111;-76
2023/01/18 17:35:47;;;;;;;6.93;3.53;;;1.30;99.90;;;;;;4906535;29;20255;-75
2023/01/18 17:38:12;;;;;;;6.53;3.17;;;1.30;99.90;;;;;;4906805;29;20036;-74
2023/01/18 17:40:39;;;;;;;8.82;3.50;;;1.20;99.90;;;;;;4906192;29;20051;-73
2023/01/18 17:43:05;;;;;;;6.57;3.40;;;1.30;99.90;;;;;;4906632;29;20041;-72
2023/01/18 17:45:30;;;;;;;7.63;3.63;;;1.40;99.90;;;;;;4906419;29;20067;-73
2023/01/18 17:47:56;;;;;;;7.60;4.10;;;1.40;99.90;;;;;;4906438;29;20060;-73
2023/01/18 17:50:23;;;;;;;7.80;3.58;;;1.30;99.90;;;;;;4906510;29;20036;-74
2023/01/18 17:52:51;;;;;;;6.87;3.60;;;1.30;99.90;;;;;;4905954;29;20051;-74
2023/01/18 17:55:17;;;;;;;7.88;3.53;;;1.30;99.90;;;;;;4906321;29;20081;-75
2023/01/18 17:57:43;;;;;;;9.65;3.97;;;1.30;99.90;;;;;;4907826;29;20266;-72
2023/01/18 18:00:12;;;;;;;6.68;3.42;;;1.20;99.90;;;;;;4921298;29;20317;-75
2023/01/18 18:02:39;;;;;;;9.88;3.50;;;1.30;99.90;;;;;;4905649;29;20391;-72
2023/01/18 18:05:06;;;;;;;8.95;3.58;;;1.30;99.90;;;;;;4907504;29;20036;-74
2023/01/18 18:07:32;;;;;;;7.57;4.13;;;1.30;99.90;;;;;;4910371;29;20139;-74
2023/01/18 18:09:59;;;;;;;7.68;3.60;;;1.30;99.90;;;;;;4910358;29;20353;-74
2023/01/18 18:12:27;;;;;;;8.67;3.90;;;1.40;99.90;;;;;;4909873;29;20111;-77
2023/01/18 18:14:54;;;;;;;7.85;4.03;;;1.40;99.90;;;;;;4908884;29;20443;-76
2023/01/18 18:17:22;;;;;;;7.32;4.07;;;1.30;99.90;;;;;;4911017;29;20112;-79
2023/01/18 18:19:48;;;;;;;8.57;5.18;;;1.40;99.90;;;;;;4910551;29;20060;-74
2023/01/18 18:22:18;;;;;;;8.73;4.70;;;1.40;99.90;;;;;;4910682;29;20036;-75
2023/01/18 18:24:47;;;;;;;8.23;5.20;;;1.40;99.90;;;;;;4909667;29;20091;-72
2023/01/18 18:27:14;;;;;;;13.43;10.52;;;1.40;99.90;;;;;;4911255;29;20040;-75
2023/01/18 18:29:40;;;;;;;9.90;5.20;;;1.40;99.90;;;;;;4912203;29;20028;-74
2023/01/18 18:32:06;;;;;;;9.95;4.15;;;1.40;99.90;;;;;;4927884;29;20322;-74
2023/01/18 18:34:33;;;;;;;10.05;4.03;;;1.30;99.90;;;;;;4929387;29;20047;-76
2023/01/18 18:36:59;;;;;;;8.80;4.40;;;1.40;99.90;;;;;;4930257;29;20063;-74
2023/01/18 18:39:25;;;;;;;10.00;4.78;;;1.40;99.90;;;;;;4923935;29;20091;-74
2023/01/18 18:41:51;;;;;;;11.60;4.75;;;1.40;99.90;;;;;;4910687;29;20307;-73
2023/01/18 18:44:18;;;;;;;9.75;4.30;;;1.40;99.90;;;;;;4910323;29;20109;-74
2023/01/18 18:46:44;;;;;;;9.50;4.07;;;1.40;99.90;;;;;;4909141;29;20039;-75
2023/01/18 18:49:09;;;;;;;8.02;4.57;;;1.30;99.90;;;;;;4909497;29;20055;-75
2023/01/18 18:51:35;;;;;;;9.20;4.90;;;1.30;99.90;;;;;;4908942;29;20064;-74
2023/01/18 18:54:03;;;;;;;12.07;5.00;;;1.30;99.90;;;;;;4908937;29;20059;-74
2023/01/18 18:56:30;;;;;;;10.50;5.25;;;1.40;99.90;;;;;;4909071;29;20036;-75
2023/01/18 18:58:55;;;;;;;8.63;4.68;;;1.40;99.90;;;;;;4924782;29;20074;-73
2023/01/18 19:01:28;;;;;;;10.02;5.80;;;1.40;99.90;;;;;;4928260;29;20192;-75
2023/01/18 19:03:54;;;;;;;11.63;5.22;;;1.40;99.90;;;;;;4915670;29;20056;-77
2023/01/18 19:06:24;;;;;;;9.82;5.47;;;1.30;99.90;;;;;;4909323;29;20318;-78
2023/01/18 19:08:52;;;;;;;13.13;7.47;;;1.30;99.90;;;;;;4908610;29;20047;-78
2023/01/18 19:11:33;;;;;;;12.30;6.28;;;1.20;99.90;;;;;;4923815;29;20063;-79
2023/01/18 19:14:03;;;;;;;12.55;6.32;;;1.20;99.90;;;;;;4908957;29;20074;-77
2023/01/18 19:16:45;;;;;;;13.98;6.95;;;1.20;99.90;;;;;;4907262;29;20294;-78